Time;durP1;ratioP1;P1;durP2;ratioP2;P2;SDS_P1;SDS_P2;PMS_P1;PMS_P2;Temp;Humidity;BMP_temperature;BMP_pressure;BME280_temperature;BME280_humidity;BME280_pressure;Samples;Min_cycle;Max_cycle;Signal;HPM_P1;HPM_P2
2023/07/19 00:00:29;;;;;;;0.80;0.70;;;;;;;24.70;53.65;95431.72;5091795;28;20473;-56
2023/07/19 00:02:57;;;;;;;0.60;0.50;;;;;;;24.84;53.91;95432.03;5092490;28;20436;-60
2023/07/19 00:05:26;;;;;;;0.50;0.50;;;;;;;24.91;53.77;95427.53;5092032;28;20443;-59
2023/07/19 00:07:54;;;;;;;0.70;0.70;;;;;;;24.97;53.33;95436.94;5091439;28;20473;-60
2023/07/19 00:10:23;;;;;;;0.97;0.70;;;;;;;24.84;53.12;95423.91;5090649;28;20440;-59
2023/07/19 00:12:52;;;;;;;0.60;0.50;;;;;;;24.84;53.85;95424.69;5091846;28;20440;-60
2023/07/19 00:15:24;;;;;;;0.50;0.40;;;;;;;24.85;54.43;95423.53;5091807;28;20520;-59
2023/07/19 00:17:52;;;;;;;2.70;0.50;;;;;;;24.94;55.00;95426.84;5092041;28;20440;-59
2023/07/19 00:20:21;;;;;;;0.57;0.47;;;;;;;25.00;53.24;95419.97;5078153;28;20433;-59
2023/07/19 00:22:49;;;;;;;0.57;0.40;;;;;;;25.20;54.42;95418.78;5091822;28;20440;-59
2023/07/19 00:25:18;;;;;;;3.23;1.00;;;;;;;25.15;54.11;95413.66;5091556;28;20455;-59
2023/07/19 00:27:48;;;;;;;0.57;0.43;;;;;;;25.27;53.83;95413.50;5091935;28;21100;-60
2023/07/19 00:30:18;;;;;;;0.70;0.53;;;;;;;25.39;53.88;95414.47;5091598;28;20429;-59
2023/07/19 00:32:46;;;;;;;1.00;0.40;;;;;;;25.47;54.53;95408.88;5091805;28;20857;-59
2023/07/19 00:35:15;;;;;;;0.40;0.30;;;;;;;25.59;53.77;95407.88;5091049;28;20468;-60
2023/07/19 00:37:44;;;;;;;0.50;0.40;;;;;;;25.36;52.13;95409.78;5091796;28;20444;-60
2023/07/19 00:40:13;;;;;;;0.50;0.40;;;;;;;25.27;52.91;95401.09;5065937;28;20440;-59
2023/07/19 00:42:41;;;;;;;0.40;0.30;;;;;;;25.36;54.07;95401.63;5091442;28;20441;-59
2023/07/19 00:45:10;;;;;;;0.40;0.40;;;;;;;25.43;55.76;95407.19;5094548;28;20440;-60
2023/07/19 00:47:41;;;;;;;0.40;0.30;;;;;;;25.45;54.77;95408.41;5096100;28;20537;-59
2023/07/19 00:50:10;;;;;;;5.83;0.47;;;;;;;25.47;55.42;95395.28;5095425;28;20489;-60
2023/07/19 00:52:39;;;;;;;0.40;0.30;;;;;;;25.57;55.66;95396.59;5095127;28;20449;-60
2023/07/19 00:55:08;;;;;;;0.50;0.30;;;;;;;25.48;56.12;95383.28;5095528;28;20440;-59
2023/07/19 00:57:37;;;;;;;0.50;0.30;;;;;;;25.40;55.74;95372.66;5095573;28;20808;-59
2023/07/19 01:00:07;;;;;;;0.70;0.50;;;;;;;25.53;56.61;95399.25;5095536;28;20480;-60
2023/07/19 01:02:36;;;;;;;0.87;0.77;;;;;;;25.41;55.84;95390.47;5095325;28;20553;-59
2023/07/19 01:05:07;;;;;;;1.00;0.50;;;;;;;25.34;55.26;95391.16;5095749;28;20517;-59
2023/07/19 01:07:35;;;;;;;0.60;0.37;;;;;;;25.17;56.80;95384.25;5095017;28;20472;-59
2023/07/19 01:10:04;;;;;;;0.50;0.43;;;;;;;25.16;56.06;95390.03;5095265;28;20428;-59
2023/07/19 01:12:32;;;;;;;0.40;0.30;;;;;;;25.19;56.60;95386.63;5095263;28;20864;-59
2023/07/19 01:15:02;;;;;;;0.60;0.30;;;;;;;25.22;56.60;95389.38;5094766;28;20433;-58
2023/07/19 01:17:30;;;;;;;0.67;0.67;;;;;;;25.25;56.99;95385.16;5095086;28;20441;-60
2023/07/19 01:19:59;;;;;;;0.50;0.30;;;;;;;25.22;55.51;95392.09;5095280;28;20447;-59
2023/07/19 01:22:32;;;;;;;0.40;0.20;;;;;;;25.33;55.86;95386.84;5095189;28;20940;-59
2023/07/19 01:25:01;;;;;;;0.50;0.40;;;;;;;25.27;56.48;95385.59;5094568;28;20443;-60
2023/07/19 01:27:29;;;;;;;0.50;0.37;;;;;;;25.27;56.67;95382.09;5095437;28;20508;-60
2023/07/19 01:29:57;;;;;;;0.40;0.20;;;;;;;25.31;55.04;95380.22;5094640;28;20497;-59
2023/07/19 01:32:26;;;;;;;0.50;0.40;;;;;;;25.04;54.15;95385.56;5095090;28;20949;-60
2023/07/19 01:34:54;;;;;;;0.50;0.40;;;;;;;24.51;55.73;95389.13;5095050;28;20444;-59
2023/07/19 01:37:22;;;;;;;0.50;0.40;;;;;;;24.24;56.09;95388.16;5094811;28;20444;-60
2023/07/19 01:39:52;;;;;;;1.73;0.60;;;;;;;24.37;57.47;95383.41;5094749;28;20485;-59
2023/07/19 01:42:20;;;;;;;0.40;0.20;;;;;;;24.39;57.24;95400.06;5094819;28;20440;-59
2023/07/19 01:44:49;;;;;;;0.60;0.50;;;;;;;24.52;59.00;95406.94;5094431;28;20940;-59
2023/07/19 01:47:17;;;;;;;0.40;0.30;;;;;;;24.68;57.85;95402.25;5094936;28;20490;-60
2023/07/19 01:49:45;;;;;;;0.50;0.30;;;;;;;24.66;57.00;95404.53;5094202;28;20432;-59
2023/07/19 01:52:14;;;;;;;0.40;0.23;;;;;;;24.36;57.53;95408.94;5094878;28;20438;-59
2023/07/19 01:54:42;;;;;;;0.57;0.27;;;;;;;24.02;58.63;95413.97;5094282;28;20432;-59
2023/07/19 01:57:12;;;;;;;0.40;0.30;;;;;;;24.28;58.00;95415.34;5094521;28;20523;-58
2023/07/19 01:59:40;;;;;;;1.00;0.70;;;;;;;23.62;59.53;95413.38;5067976;28;20468;-58
2023/07/19 02:02:08;;;;;;;1.67;0.60;;;;;;;23.24;60.82;95407.72;5094395;28;20440;-58
2023/07/19 02:04:38;;;;;;;0.50;0.33;;;;;;;23.40;60.31;95407.78;5094798;28;20547;-58
2023/07/19 02:07:07;;;;;;;1.07;0.60;;;;;;;23.39;60.49;95407.00;5093933;28;20439;-58
2023/07/19 02:09:35;;;;;;;0.40;0.30;;;;;;;23.62;59.98;95415.28;5094069;28;20440;-59
2023/07/19 02:12:04;;;;;;;0.80;0.60;;;;;;;23.47;60.15;95418.78;5093850;28;20432;-58
2023/07/19 02:14:33;;;;;;;0.70;0.47;;;;;;;23.16;61.16;95412.16;5094210;28;20498;-58
2023/07/19 02:17:02;;;;;;;3.03;1.10;;;;;;;22.67;63.29;95406.19;5093807;28;20436;-58
2023/07/19 02:19:30;;;;;;;0.40;0.30;;;;;;;22.92;63.28;95403.41;5094131;28;20502;-57
2023/07/19 02:21:59;;;;;;;0.50;0.40;;;;;;;23.36;63.78;95415.78;5094226;28;20547;-57
2023/07/19 02:24:27;;;;;;;4.40;1.17;;;;;;;23.46;62.27;95411.78;5093892;28;20433;-57
2023/07/19 02:26:56;;;;;;;0.50;0.40;;;;;;;23.57;63.00;95418.25;5093892;28;20948;-56
2023/07/19 02:29:24;;;;;;;0.50;0.50;;;;;;;23.88;64.74;95424.44;5093789;28;20874;-56
2023/07/19 02:31:54;;;;;;;0.60;0.50;;;;;;;24.03;63.84;95423.63;5093323;28;20433;-56
2023/07/19 02:34:23;;;;;;;0.60;0.53;;;;;;;23.41;62.67;95420.16;5094291;28;20440;-56
2023/07/19 02:36:51;;;;;;;0.50;0.40;;;;;;;23.60;64.16;95429.19;5093077;28;20432;-55
2023/07/19 02:39:20;;;;;;;0.50;0.40;;;;;;;23.79;64.75;95415.72;5094075;28;20432;-57
2023/07/19 02:41:48;;;;;;;0.40;0.30;;;;;;;24.11;64.42;95421.91;5093759;28;20523;-57
2023/07/19 02:44:17;;;;;;;0.50;0.40;;;;;;;23.53;62.70;95422.81;5093473;28;20527;-57
2023/07/19 02:46:45;;;;;;;1.43;0.50;;;;;;;23.17;63.60;95421.84;5081092;28;20479;-57
2023/07/19 02:49:16;;;;;;;0.70;0.50;;;;;;;23.42;67.86;95430.66;5093262;28;20508;-57
2023/07/19 02:51:44;;;;;;;0.80;0.63;;;;;;;23.76;65.42;95431.88;5093452;28;20441;-56
2023/07/19 02:54:12;;;;;;;0.70;0.47;;;;;;;23.70;65.98;95439.50;5092711;28;20937;-56
2023/07/19 02:56:41;;;;;;;0.40;0.30;;;;;;;23.69;65.08;95439.81;5093455;28;20441;-57
2023/07/19 02:59:09;;;;;;;0.90;0.63;;;;;;;23.45;65.93;95394.00;5092902;28;20521;-57
2023/07/19 03:01:37;;;;;;;2.77;0.60;;;;;;;23.95;65.67;95440.88;5093186;28;21098;-56
2023/07/19 03:04:06;;;;;;;0.80;0.60;;;;;;;24.05;65.37;95446.88;5092599;28;20433;-56
2023/07/19 03:06:36;;;;;;;0.40;0.30;;;;;;;23.82;66.13;95439.41;5092245;28;20437;-56
2023/07/19 03:09:06;;;;;;;0.57;0.40;;;;;;;23.69;66.84;95443.31;5089218;28;20540;-56
2023/07/19 03:11:34;;;;;;;0.60;0.50;;;;;;;23.71;66.58;95442.94;5084713;28;20437;-56
2023/07/19 03:14:03;;;;;;;0.47;0.33;;;;;;;23.77;67.22;95445.06;5092542;28;20562;-56
2023/07/19 03:16:31;;;;;;;0.50;0.30;;;;;;;23.80;67.65;95449.00;5093254;28;20456;-56
2023/07/19 03:18:59;;;;;;;0.70;0.63;;;;;;;23.87;67.91;95447.25;5092159;28;20942;-56
2023/07/19 03:21:28;;;;;;;2.67;0.70;;;;;;;23.86;67.68;95448.38;5093344;28;20461;-56
2023/07/19 03:23:57;;;;;;;0.50;0.43;;;;;;;23.89;66.16;95438.75;5092790;28;20436;-56
2023/07/19 03:26:26;;;;;;;0.63;0.53;;;;;;;23.74;68.13;95448.47;5092879;28;20441;-56
2023/07/19 03:28:54;;;;;;;0.50;0.30;;;;;;;23.70;67.85;95441.41;5092637;28;20468;-56
2023/07/19 03:31:23;;;;;;;0.40;0.30;;;;;;;23.62;69.26;95426.91;5092881;28;20433;-56
2023/07/19 03:33:51;;;;;;;1.83;0.40;;;;;;;23.47;69.02;95433.09;5093045;28;20979;-56
2023/07/19 03:36:20;;;;;;;0.70;0.50;;;;;;;23.52;68.57;95432.84;5092599;28;20432;-56
2023/07/19 03:38:48;;;;;;;0.50;0.30;;;;;;;23.64;69.24;95432.75;5093039;28;20802;-56
2023/07/19 03:41:18;;;;;;;1.57;0.50;;;;;;;23.64;68.32;95432.75;5092444;28;20449;-56
2023/07/19 03:43:46;;;;;;;0.50;0.33;;;;;;;23.61;69.57;95421.81;5092961;28;20443;-56
2023/07/19 03:46:15;;;;;;;0.50;0.30;;;;;;;23.59;69.06;95419.47;5092144;28;20546;-56
2023/07/19 03:48:43;;;;;;;0.50;0.40;;;;;;;23.57;69.14;95427.16;5092526;28;20503;-57
2023/07/19 03:51:11;;;;;;;4.17;0.70;;;;;;;23.48;69.21;95417.66;5092401;28;20436;-57
2023/07/19 03:53:40;;;;;;;0.50;0.40;;;;;;;23.63;69.29;95430.41;5092930;28;20432;-57
2023/07/19 03:56:08;;;;;;;1.00;0.57;;;;;;;23.31;68.13;95421.44;5091807;28;20437;-57
2023/07/19 03:58:39;;;;;;;0.70;0.63;;;;;;;23.26;70.66;95432.50;5087376;28;20448;-57
2023/07/19 04:01:07;;;;;;;1.30;1.20;;;;;;;23.50;70.12;95424.28;5092591;28;20445;-57
2023/07/19 04:03:35;;;;;;;0.70;0.63;;;;;;;23.32;69.38;95415.69;5092387;28;20463;-56
2023/07/19 04:06:04;;;;;;;1.83;1.27;;;;;;;22.97;70.31;95354.50;5091913;28;20436;-57
2023/07/19 04:08:32;;;;;;;0.57;0.40;;;;;;;23.59;69.91;95421.41;5091530;28;20533;-57
2023/07/19 04:11:01;;;;;;;0.60;0.47;;;;;;;23.65;70.37;95417.31;5092245;28;20527;-58
2023/07/19 04:13:29;;;;;;;0.60;0.40;;;;;;;23.84;70.36;95418.16;5081944;28;20490;-57
2023/07/19 04:15:59;;;;;;;0.90;0.50;;;;;;;24.10;69.36;95422.25;5091991;28;20496;-58
2023/07/19 04:18:27;;;;;;;0.40;0.30;;;;;;;24.18;69.63;95413.16;5091437;28;20489;-58
2023/07/19 04:20:57;;;;;;;1.37;1.27;;;;;;;24.32;69.13;95402.63;5091901;28;20437;-58
2023/07/19 04:23:25;;;;;;;1.27;0.63;;;;;;;24.49;69.41;95405.72;5091749;28;20467;-58
2023/07/19 04:25:54;;;;;;;0.87;0.50;;;;;;;24.10;66.27;95398.69;5091896;28;20479;-59
2023/07/19 04:28:22;;;;;;;0.50;0.40;;;;;;;24.27;68.05;95395.56;5091190;28;21023;-60
2023/07/19 04:30:50;;;;;;;0.50;0.30;;;;;;;24.45;67.86;95406.78;5091320;28;20464;-59
2023/07/19 04:33:20;;;;;;;1.10;0.60;;;;;;;24.66;67.36;95403.75;5091112;28;20441;-60
2023/07/19 04:35:50;;;;;;;0.40;0.30;;;;;;;24.66;67.38;95393.69;5092182;28;20510;-60
2023/07/19 04:38:18;;;;;;;1.47;0.40;;;;;;;24.68;66.67;95396.03;5091660;28;20443;-59
2023/07/19 04:40:47;;;;;;;1.67;0.40;;;;;;;24.72;66.10;95397.69;5091523;28;20437;-59
2023/07/19 04:43:15;;;;;;;0.63;0.63;;;;;;;24.54;65.58;95397.31;5091800;28;20488;-59
2023/07/19 04:45:44;;;;;;;0.50;0.40;;;;;;;24.66;64.06;95396.41;5091978;28;20440;-59
2023/07/19 04:48:13;;;;;;;0.50;0.30;;;;;;;24.67;63.02;95392.53;5090858;28;20523;-59
2023/07/19 04:50:43;;;;;;;1.33;0.50;;;;;;;24.68;64.69;95396.03;5091306;28;20487;-59
2023/07/19 04:53:11;;;;;;;5.30;0.80;;;;;;;24.46;63.55;95398.31;5091983;28;20515;-60
2023/07/19 04:55:40;;;;;;;1.13;1.00;;;;;;;24.21;65.64;95405.09;5091522;28;20444;-60
2023/07/19 04:58:08;;;;;;;0.50;0.43;;;;;;;24.19;65.71;95393.84;5091448;28;20472;-60
2023/07/19 05:00:36;;;;;;;2.40;1.17;;;;;;;23.56;66.78;95376.09;5091049;28;20472;-59
2023/07/19 05:03:05;;;;;;;2.50;1.03;;;;;;;23.54;68.67;95386.47;5091153;28;20483;-61
2023/07/19 05:05:33;;;;;;;0.73;0.70;;;;;;;23.87;69.00;95392.31;5091538;28;20959;-61
2023/07/19 05:08:04;;;;;;;0.77;0.77;;;;;;;23.82;70.56;95389.88;5091714;28;20437;-59
2023/07/19 05:10:32;;;;;;;1.10;1.10;;;;;;;23.60;70.35;95383.19;5086375;28;20559;-60
2023/07/19 05:13:00;;;;;;;2.17;0.60;;;;;;;24.25;67.80;95375.41;5091445;28;20451;-60
2023/07/19 05:15:29;;;;;;;0.60;0.40;;;;;;;24.67;66.26;95392.53;5090842;28;20937;-60
2023/07/19 05:17:57;;;;;;;0.40;0.30;;;;;;;24.82;67.04;95378.16;5091191;28;20433;-61
2023/07/19 05:20:26;;;;;;;0.50;0.40;;;;;;;24.85;67.76;95376.66;5091569;28;20436;-61
2023/07/19 05:22:54;;;;;;;0.87;0.40;;;;;;;24.75;67.00;95374.50;5091516;28;20448;-62
2023/07/19 05:25:24;;;;;;;0.50;0.50;;;;;;;24.86;67.25;95373.59;5091444;28;20952;-61
2023/07/19 05:27:52;;;;;;;2.17;2.00;;;;;;;25.21;66.60;95363.41;5091114;28;20441;-61
2023/07/19 05:30:21;;;;;;;0.40;0.30;;;;;;;25.49;63.65;95365.84;5092223;28;20849;-62
2023/07/19 05:32:49;;;;;;;0.83;0.83;;;;;;;25.07;63.35;95354.25;5095044;28;20437;-63
2023/07/19 05:35:18;;;;;;;0.60;0.50;;;;;;;25.21;60.43;95357.19;5094921;28;20432;-63
2023/07/19 05:37:46;;;;;;;0.73;0.73;;;;;;;25.53;61.15;95352.31;5094861;28;20519;-62
2023/07/19 05:40:15;;;;;;;3.60;0.87;;;;;;;25.62;60.50;95363.72;5094952;28;20808;-63
2023/07/19 05:42:44;;;;;;;0.50;0.50;;;;;;;25.78;59.68;95364.34;5094615;28;20436;-61
2023/07/19 05:45:13;;;;;;;0.80;0.80;;;;;;;26.09;59.26;95357.84;5094851;28;20948;-62
2023/07/19 05:47:41;;;;;;;0.40;0.30;;;;;;;26.05;59.19;95349.66;5094564;28;20843;-61
2023/07/19 05:50:10;;;;;;;0.80;0.80;;;;;;;25.96;59.41;95351.06;5094611;28;20498;-62
2023/07/19 05:52:39;;;;;;;1.07;0.70;;;;;;;26.21;61.08;95327.78;5094709;28;20452;-62
2023/07/19 05:55:09;;;;;;;0.50;0.43;;;;;;;26.72;60.53;95347.81;5084940;28;20451;-62
2023/07/19 05:57:37;;;;;;;1.10;0.60;;;;;;;26.85;62.66;95334.78;5090441;28;21143;-61
2023/07/19 06:00:13;;;;;;;0.50;0.43;;;;;;;27.19;59.42;95330.88;5094275;28;20471;-60
2023/07/19 06:02:45;;;;;;;0.70;0.70;;;;;;;27.27;58.36;95329.78;5094684;28;20480;-59
2023/07/19 06:05:22;;;;;;;0.40;0.30;;;;;;;27.77;59.46;95338.38;5094317;28;20448;-59
2023/07/19 06:07:51;;;;;;;0.63;0.50;;;;;;;27.51;61.02;95344.78;5094276;28;20444;-58
2023/07/19 06:10:20;;;;;;;0.93;0.93;;;;;;;26.98;61.26;95336.09;5093208;28;20474;-58
2023/07/19 06:12:49;;;;;;;2.50;2.07;;;;;;;26.45;63.84;95338.97;5093971;28;20440;-59
2023/07/19 06:15:20;;;;;;;0.70;0.40;;;;;;;26.84;63.37;95338.69;5093733;28;20472;-59
2023/07/19 06:17:48;;;;;;;0.70;0.70;;;;;;;27.36;62.52;95345.78;5094180;28;20539;-59
2023/07/19 06:20:17;;;;;;;0.50;0.37;;;;;;;27.78;61.54;95348.13;5093489;28;20504;-58
2023/07/19 06:22:45;;;;;;;0.70;0.60;;;;;;;27.89;60.11;95338.06;5094027;28;20861;-58
2023/07/19 06:25:14;;;;;;;0.90;0.90;;;;;;;27.73;61.61;95344.56;5093729;28;20441;-58
2023/07/19 06:27:43;;;;;;;1.07;0.97;;;;;;;28.08;61.30;95352.25;5094104;28;20439;-58
2023/07/19 06:30:13;;;;;;;1.53;1.40;;;;;;;27.73;60.75;95355.47;5093779;28;20506;-57
2023/07/19 06:32:42;;;;;;;1.90;0.70;;;;;;;28.02;61.04;95344.81;5094323;28;20476;-57
2023/07/19 06:35:11;;;;;;;1.43;0.90;;;;;;;28.45;60.09;95337.66;5093535;28;20444;-57
2023/07/19 06:37:39;;;;;;;1.37;1.27;;;;;;;28.49;60.97;95333.78;5093467;28;20523;-57
2023/07/19 06:40:09;;;;;;;1.27;1.23;;;;;;;28.88;58.73;95337.47;5086927;28;20857;-56
2023/07/19 06:42:37;;;;;;;3.73;2.20;;;;;;;28.98;57.37;95272.38;5086084;28;20436;-56
2023/07/19 06:45:06;;;;;;;0.60;0.60;;;;;;;29.19;56.94;95321.53;5093522;28;20449;-57
2023/07/19 06:47:35;;;;;;;0.83;0.57;;;;;;;29.86;58.21;95332.53;5079927;28;20547;-56
2023/07/19 06:50:06;;;;;;;0.77;0.57;;;;;;;29.98;54.95;95319.25;5093415;28;20565;-57
2023/07/19 06:52:34;;;;;;;0.40;0.30;;;;;;;30.45;54.23;95326.19;5093249;28;20498;-57
2023/07/19 06:55:03;;;;;;;0.90;0.57;;;;;;;30.40;53.26;95331.28;5093331;28;20436;-56
2023/07/19 06:57:31;;;;;;;0.97;0.80;;;;;;;30.31;53.24;95331.66;5093049;28;20436;-57
2023/07/19 07:00:00;;;;;;;0.43;0.30;;;;;;;30.88;51.82;95326.00;5092884;28;20472;-56
2023/07/19 07:02:28;;;;;;;2.40;0.80;;;;;;;31.12;53.07;95325.13;5093250;28;20432;-56
2023/07/19 07:04:57;;;;;;;0.63;0.50;;;;;;;31.38;50.55;95319.84;5093199;28;20440;-56
2023/07/19 07:07:26;;;;;;;2.17;0.50;;;;;;;31.65;49.62;95320.06;5092672;28;21097;-55
2023/07/19 07:09:57;;;;;;;0.40;0.40;;;;;;;31.75;51.25;95324.66;5093646;28;20852;-56
2023/07/19 07:12:26;;;;;;;1.50;1.33;;;;;;;31.48;47.96;95314.72;5092549;28;20439;-56
2023/07/19 07:14:54;;;;;;;0.80;0.50;;;;;;;31.90;51.45;95315.13;5092875;28;20523;-57
2023/07/19 07:17:22;;;;;;;0.40;0.30;;;;;;;32.30;49.07;95318.31;5092619;28;20435;-55
2023/07/19 07:19:53;;;;;;;0.80;0.70;;;;;;;32.41;47.94;95313.50;5093470;28;20435;-56
2023/07/19 07:22:23;;;;;;;1.13;0.70;;;;;;;32.59;45.67;95314.06;5093429;28;20497;-56
2023/07/19 07:24:53;;;;;;;0.93;0.70;;;;;;;32.88;47.08;95314.50;5092383;28;20478;-56
2023/07/19 07:27:21;;;;;;;0.70;0.70;;;;;;;32.02;49.30;95311.16;5092598;28;20963;-56
2023/07/19 07:29:50;;;;;;;0.80;0.80;;;;;;;31.32;44.49;95252.97;5092445;28;20585;-56
2023/07/19 07:32:18;;;;;;;1.00;0.87;;;;;;;31.74;45.00;95305.91;5092485;28;20528;-56
2023/07/19 07:34:46;;;;;;;0.77;0.67;;;;;;;31.99;43.66;95295.50;5092630;28;20501;-56
2023/07/19 07:37:14;;;;;;;0.57;0.33;;;;;;;32.36;42.91;95290.00;5092769;28;20500;-56
2023/07/19 07:39:43;;;;;;;1.00;1.00;;;;;;;32.87;43.13;95280.75;5092746;28;20478;-58
2023/07/19 07:42:13;;;;;;;0.40;0.40;;;;;;;33.31;42.09;95271.53;5092546;28;20436;-59
2023/07/19 07:44:41;;;;;;;5.10;0.97;;;;;;;33.33;41.25;95260.88;5092406;28;20435;-59
2023/07/19 07:47:10;;;;;;;0.40;0.30;;;;;;;33.78;42.58;95272.34;5092638;28;20904;-59
2023/07/19 07:49:38;;;;;;;1.10;1.10;;;;;;;33.36;40.23;95273.81;5092364;28;20828;-59
2023/07/19 07:52:11;;;;;;;0.80;0.60;;;;;;;33.96;42.55;95241.75;5091951;28;20882;-59
2023/07/19 07:54:39;;;;;;;1.13;1.03;;;;;;;33.71;38.63;95272.47;5092303;28;20462;-59
2023/07/19 07:57:08;;;;;;;0.60;0.57;;;;;;;34.13;39.92;95273.72;5092374;28;20474;-59
2023/07/19 07:59:37;;;;;;;1.30;0.93;;;;;;;34.03;40.17;95269.91;5092029;28;20455;-60
2023/07/19 08:02:06;;;;;;;3.13;2.17;;;;;;;33.79;39.82;95269.19;5091149;28;20467;-59
2023/07/19 08:04:35;;;;;;;1.10;1.10;;;;;;;33.38;39.85;95263.16;5092061;28;20501;-59
2023/07/19 08:07:03;;;;;;;0.50;0.50;;;;;;;33.77;40.66;95260.59;5091843;28;20436;-58
2023/07/19 08:09:34;;;;;;;3.60;1.07;;;;;;;33.77;40.00;95266.09;5091685;28;20776;-58
2023/07/19 08:12:02;;;;;;;1.20;1.00;;;;;;;33.62;38.88;95266.75;5091889;28;20505;-58
2023/07/19 08:14:30;;;;;;;0.50;0.40;;;;;;;34.64;39.58;95264.84;5092193;28;20992;-58
2023/07/19 08:17:00;;;;;;;0.53;0.53;;;;;;;34.69;41.44;95253.31;5091988;28;20447;-58
2023/07/19 08:19:30;;;;;;;0.40;0.30;;;;;;;35.25;40.50;95256.03;5091856;28;20228;-58
2023/07/19 08:22:03;;;;;;;0.90;0.70;;;;;;;35.04;38.13;95252.56;5091415;28;20202;-58
2023/07/19 08:24:33;;;;;;;0.50;0.43;;;;;;;35.97;37.83;95260.16;5080272;28;20566;-56
2023/07/19 08:27:01;;;;;;;0.43;0.40;;;;;;;35.60;38.16;95257.94;5090588;28;20254;-56
2023/07/19 08:29:29;;;;;;;0.70;0.40;;;;;;;36.57;36.95;95257.75;5091904;28;20200;-56
2023/07/19 08:31:58;;;;;;;0.80;0.80;;;;;;;35.88;36.49;95257.22;5091348;28;20877;-53
2023/07/19 08:34:27;;;;;;;1.13;1.13;;;;;;;35.93;36.91;95259.47;5092025;28;20232;-53
2023/07/19 08:36:56;;;;;;;16.33;0.70;;;;;;;36.46;36.91;95252.50;5091517;28;20190;-53
2023/07/19 08:39:27;;;;;;;2.37;0.80;;;;;;;36.59;36.17;95255.31;5091698;28;20189;-54
2023/07/19 08:41:55;;;;;;;1.17;1.07;;;;;;;36.64;35.13;95252.81;5091781;28;20197;-54
2023/07/19 08:44:23;;;;;;;3.63;0.70;;;;;;;36.04;36.57;95253.69;5091431;28;20246;-54
2023/07/19 08:46:52;;;;;;;0.83;0.83;;;;;;;35.86;35.51;95245.06;5091663;28;20193;-55
2023/07/19 08:49:21;;;;;;;0.82;0.82;;;;;;;35.60;35.54;95249.69;5091401;28;20208;-55
2023/07/19 08:51:51;;;;;;;0.40;0.40;;;;;;;35.86;37.10;95243.09;5091482;28;20245;-55
2023/07/19 08:54:20;;;;;;;0.50;0.50;;;;;;;36.72;35.78;95247.84;5091536;28;20634;-54
2023/07/19 08:56:48;;;;;;;0.73;0.73;;;;;;;36.33;35.46;95243.44;5091158;28;20228;-54
2023/07/19 08:59:16;;;;;;;0.75;0.75;;;;;;;36.35;35.52;95238.25;5090913;28;20226;-54
2023/07/19 09:01:45;;;;;;;0.60;0.60;;;;;;;36.58;35.88;95237.22;5091327;28;20266;-54
2023/07/19 09:04:13;;;;;;;0.80;0.80;;;;;;;37.01;37.00;95226.47;5091156;28;20197;-54
2023/07/19 09:06:42;;;;;;;2.08;1.88;;;;;;;36.83;35.38;95227.00;5094664;28;20251;-54
2023/07/19 09:09:14;;;;;;;1.13;1.13;;;;;;;37.34;36.39;95222.22;5094497;28;20200;-54
2023/07/19 09:11:43;;;;;;;0.50;0.50;;;;;;;37.20;34.54;95205.34;5095455;28;20636;-54
2023/07/19 09:14:12;;;;;;;0.40;0.40;;;;;;;37.43;34.27;95218.81;5068788;28;20284;-55
2023/07/19 09:16:41;;;;;;;0.60;0.50;;;;;;;37.48;33.64;95204.44;5094923;28;20194;-55
2023/07/19 09:19:10;;;;;;;0.75;0.75;;;;;;;37.85;33.57;95205.59;5094964;28;20193;-54
2023/07/19 09:21:42;;;;;;;0.38;0.30;;;;;;;37.79;32.93;95196.28;5095247;28;20201;-54
2023/07/19 09:24:11;;;;;;;12.75;1.80;;;;;;;37.13;33.07;95198.06;5094966;28;20197;-55
2023/07/19 09:26:50;;;;;;;0.80;0.73;;;;;;;37.50;33.06;95183.41;5094917;28;20233;-56
2023/07/19 09:29:19;;;;;;;0.40;0.40;;;;;;;38.33;31.96;95182.88;5094779;28;20201;-55
2023/07/19 09:31:53;;;;;;;0.77;0.77;;;;;;;38.77;31.98;95174.53;5094811;28;20255;-54
2023/07/19 09:34:22;;;;;;;0.63;0.50;;;;;;;38.28;32.10;95169.59;5095065;28;20842;-54
2023/07/19 09:36:52;;;;;;;0.47;0.47;;;;;;;38.52;31.47;95170.72;5094905;28;20343;-54
2023/07/19 09:39:21;;;;;;;0.80;0.80;;;;;;;38.37;29.50;95169.69;5094545;28;20197;-55
2023/07/19 09:41:52;;;;;;;0.93;0.93;;;;;;;38.29;29.68;95167.59;5069396;28;20201;-54
2023/07/19 09:44:22;;;;;;;1.23;0.80;;;;;;;38.18;31.91;95145.09;5094287;28;20204;-54
2023/07/19 09:46:51;;;;;;;0.32;0.32;;;;;;;38.88;29.99;95147.19;5094829;28;20185;-54
2023/07/19 09:49:19;;;;;;;1.77;1.67;;;;;;;38.88;29.96;95144.41;5094728;28;20198;-55
2023/07/19 09:51:49;;;;;;;0.65;0.65;;;;;;;39.10;27.63;95131.22;5094593;28;20217;-54
2023/07/19 09:54:17;;;;;;;0.40;0.40;;;;;;;39.15;27.40;95128.63;5094503;28;20659;-54
2023/07/19 09:56:46;;;;;;;3.55;0.68;;;;;;;38.85;28.54;95131.47;5093887;28;20205;-54
2023/07/19 09:59:21;;;;;;;0.93;0.93;;;;;;;38.56;28.13;95129.78;5093676;28;20538;-54
2023/07/19 10:01:50;;;;;;;0.38;0.38;;;;;;;39.50;28.78;95131.16;5094146;28;20201;-54
2023/07/19 10:04:23;;;;;;;0.60;0.40;;;;;;;40.18;27.48;95119.47;5093972;28;20190;-54
2023/07/19 10:07:03;;;;;;;0.80;0.77;;;;;;;39.33;28.76;95114.84;5094395;28;20285;-54
2023/07/19 10:09:37;;;;;;;0.40;0.38;;;;;;;40.24;27.83;95111.28;5094353;28;20280;-54
2023/07/19 10:12:24;;;;;;;1.88;1.42;;;;;;;40.08;28.30;95097.75;5094003;28;20205;-53
2023/07/19 10:14:55;;;;;;;0.40;0.38;;;;;;;40.66;29.02;95109.31;5094260;28;20242;-54
2023/07/19 10:17:24;;;;;;;0.73;0.40;;;;;;;40.68;28.01;95098.50;5092180;28;20186;-54
2023/07/19 10:20:07;;;;;;;0.70;0.70;;;;;;;40.50;28.15;95056.91;5093908;28;20193;-54
2023/07/19 10:22:55;;;;;;;0.55;0.55;;;;;;;40.78;29.50;95104.78;5094113;28;20198;-54
2023/07/19 10:25:27;;;;;;;0.85;0.70;;;;;;;39.90;29.12;95104.06;5094133;28;20239;-54
2023/07/19 10:27:57;;;;;;;0.68;0.68;;;;;;;40.20;29.00;95105.13;5093848;28;20190;-55
2023/07/19 10:30:52;;;;;;;0.52;0.52;;;;;;;39.53;31.79;95097.72;5093533;28;20189;-55
2023/07/19 10:33:22;;;;;;;0.80;0.57;;;;;;;39.80;30.25;95094.19;5093507;28;20263;-55
2023/07/19 10:35:52;;;;;;;0.60;0.60;;;;;;;39.37;30.05;95094.50;5094029;28;20677;-55
2023/07/19 10:38:22;;;;;;;0.95;0.95;;;;;;;38.89;30.54;95090.53;5093621;28;20197;-55
2023/07/19 10:40:56;;;;;;;0.40;0.40;;;;;;;39.75;29.34;95086.50;5093711;28;20215;-54
2023/07/19 10:43:25;;;;;;;0.40;0.40;;;;;;;40.13;29.65;95086.03;5093682;28;20205;-56
2023/07/19 10:46:15;;;;;;;1.13;0.40;;;;;;;41.00;28.90;95081.06;5092830;28;20215;-55
2023/07/19 10:48:43;;;;;;;0.52;0.52;;;;;;;41.06;28.62;95070.81;5093620;28;20198;-55
2023/07/19 10:51:12;;;;;;;0.70;0.70;;;;;;;39.94;28.84;95065.81;5092663;28;20186;-54
2023/07/19 10:53:45;;;;;;;0.80;0.80;;;;;;;39.91;29.16;95061.97;5093499;28;20225;-55
2023/07/19 10:56:14;;;;;;;0.98;0.30;;;;;;;40.74;30.48;95059.72;5092991;28;20194;-55
2023/07/19 10:58:43;;;;;;;0.75;0.75;;;;;;;40.15;28.76;95061.31;5092910;28;20197;-55
2023/07/19 11:01:11;;;;;;;1.52;0.68;;;;;;;40.01;31.35;95056.38;5092261;28;20196;-56
2023/07/19 11:03:46;;;;;;;0.70;0.70;;;;;;;39.97;31.33;95048.97;5093245;28;20236;-55
2023/07/19 11:06:15;;;;;;;2.88;0.40;;;;;;;39.70;30.32;95039.94;5093205;28;21093;-55
2023/07/19 11:08:44;;;;;;;0.73;0.63;;;;;;;40.66;29.87;95048.16;5093154;28;20210;-55
2023/07/19 11:11:13;;;;;;;1.02;1.02;;;;;;;40.59;30.63;95045.75;5092924;28;20216;-55
2023/07/19 11:13:42;;;;;;;1.55;0.45;;;;;;;40.58;29.27;95033.84;5092635;28;20212;-56
2023/07/19 11:16:11;;;;;;;7.72;0.88;;;;;;;40.84;30.88;95036.94;5093140;28;20251;-55
2023/07/19 11:18:42;;;;;;;0.60;0.60;;;;;;;40.49;27.55;95038.69;5092980;28;20542;-56
2023/07/19 11:21:11;;;;;;;0.50;0.45;;;;;;;40.43;27.67;95030.19;5093313;28;20201;-56
2023/07/19 11:23:41;;;;;;;1.30;1.15;;;;;;;39.76;27.52;95032.53;5092869;28;20194;-56
2023/07/19 11:26:12;;;;;;;0.50;0.50;;;;;;;39.85;28.24;95029.72;5092940;28;20197;-55
2023/07/19 11:28:45;;;;;;;0.38;0.38;;;;;;;39.29;28.81;95021.94;5092506;28;20193;-55
2023/07/19 11:31:28;;;;;;;0.50;0.50;;;;;;;39.31;28.65;95023.00;5092962;28;20193;-56
2023/07/19 11:34:06;;;;;;;0.60;0.50;;;;;;;39.68;28.48;95012.66;5092640;28;20232;-56
2023/07/19 11:36:35;;;;;;;1.17;0.85;;;;;;;39.51;27.48;95003.13;5092292;28;20198;-56
2023/07/19 11:39:03;;;;;;;0.77;0.77;;;;;;;39.94;27.09;94971.44;5092421;28;20216;-55
2023/07/19 11:41:32;;;;;;;0.50;0.50;;;;;;;40.54;26.84;94999.16;5092004;28;20217;-54
2023/07/19 11:44:01;;;;;;;0.30;0.25;;;;;;;40.97;26.39;94993.03;5092323;28;20198;-54